createdAt,value
2023-02-19T00:00:05.543Z,101683.17
2023-02-19T00:02:41.917Z,101685.60
2023-02-19T00:05:10.545Z,101680.41
2023-02-19T00:07:39.090Z,101672.45
2023-02-19T00:10:08.454Z,101666.37
2023-02-19T00:12:37.574Z,101660.80
2023-02-19T00:15:07.394Z,101652.29
2023-02-19T00:17:39.872Z,101646.03
2023-02-19T00:20:09.055Z,101630.91
2023-02-19T00:22:37.344Z,101623.77
2023-02-19T00:25:06.320Z,101618.21
2023-02-19T00:27:35.265Z,101618.38
2023-02-19T00:30:03.677Z,101610.56
2023-02-19T00:32:32.728Z,101611.26
2023-02-19T00:35:02.457Z,101604.13
2023-02-19T00:37:33.288Z,101590.23
2023-02-19T00:40:01.789Z,101586.73
2023-02-19T00:42:30.431Z,101584.13
2023-02-19T00:44:58.641Z,101584.63
2023-02-19T00:47:26.952Z,101581.50
2023-02-19T00:49:55.506Z,101581.48
2023-02-19T00:52:24.101Z,101581.14
2023-02-19T00:54:53.474Z,101578.01
2023-02-19T00:57:21.993Z,101567.62
2023-02-19T00:59:50.291Z,101564.14
2023-02-19T01:02:18.585Z,101554.07
2023-02-19T01:04:47.053Z,101551.84
2023-02-19T01:07:15.409Z,101546.79
2023-02-19T01:09:45.812Z,101548.02
2023-02-19T01:12:14.805Z,101543.15
2023-02-19T01:15:24.840Z,101626.02
2023-02-19T01:17:53.881Z,101651.37
2023-02-19T01:20:26.739Z,101627.59
2023-02-19T01:22:55.331Z,101610.58
2023-02-19T01:25:24.778Z,101601.70
2023-02-19T01:27:53.053Z,101589.55
2023-02-19T01:30:21.301Z,101586.43
2023-02-19T01:32:50.110Z,101579.29
2023-02-19T01:35:20.704Z,101576.52
2023-02-19T01:37:49.038Z,101557.92
2023-02-19T01:40:17.420Z,101549.73
2023-02-19T01:42:46.134Z,101545.40
2023-02-19T01:45:24.807Z,101535.15
2023-02-19T01:48:14.990Z,101525.41
2023-02-19T01:50:50.410Z,101526.45
2023-02-19T01:53:20.918Z,101520.02
2023-02-19T01:55:49.710Z,101507.52
2023-02-19T01:58:18.668Z,101506.12
2023-02-19T02:00:47.858Z,101505.06
2023-02-19T02:03:22.167Z,101502.78
2023-02-19T02:06:04.086Z,101506.58
2023-02-19T02:08:52.992Z,101511.59
2023-02-19T02:11:22.238Z,101512.95
2023-02-19T02:13:52.511Z,101504.08
2023-02-19T02:16:29.528Z,101498.68
2023-02-19T02:19:11.402Z,101496.94
2023-02-19T02:21:46.160Z,101494.84
2023-02-19T02:24:55.209Z,101493.09
2023-02-19T02:27:28.896Z,101493.95
2023-02-19T02:30:16.352Z,101485.09
2023-02-19T02:32:56.781Z,101485.77
2023-02-19T02:35:34.679Z,101478.80
2023-02-19T02:38:05.544Z,101472.86
2023-02-19T02:40:37.621Z,101466.07
2023-02-19T02:43:05.930Z,101461.67
2023-02-19T02:45:37.836Z,101457.61
2023-02-19T02:48:33.642Z,101457.58
2023-02-19T02:51:12.730Z,101452.81
2023-02-19T02:54:14.634Z,101448.44
2023-02-19T02:56:43.620Z,101445.42
2023-02-19T02:59:13.559Z,101435.17
2023-02-19T03:02:15.373Z,101433.59
2023-02-19T03:05:15.419Z,101438.77
2023-02-19T03:07:46.954Z,101439.97
2023-02-19T03:10:22.618Z,101432.52
2023-02-19T03:13:11.646Z,101430.95
2023-02-19T03:16:02.309Z,101426.77
2023-02-19T03:18:50.219Z,101416.69
2023-02-19T03:21:24.731Z,101416.48
2023-02-19T03:24:12.021Z,101408.82
2023-02-19T03:26:40.420Z,101404.31
2023-02-19T03:29:26.405Z,101401.16
2023-02-19T03:32:10.874Z,101397.36
2023-02-19T03:34:44.191Z,101396.15
2023-02-19T03:37:30.598Z,101394.59
2023-02-19T03:40:00.385Z,101395.31
2023-02-19T03:42:49.448Z,101392.89
2023-02-19T03:46:05.697Z,101397.09
2023-02-19T03:48:35.416Z,101403.52
2023-02-19T03:51:32.852Z,101399.05
2023-02-19T03:54:19.004Z,101405.13
2023-02-19T03:56:52.267Z,101403.58
2023-02-19T03:59:34.928Z,101402.39
2023-02-19T04:02:12.078Z,101404.48
2023-02-19T04:05:08.664Z,101401.20
2023-02-19T04:07:43.697Z,101401.71
2023-02-19T04:10:12.024Z,101393.73
2023-02-19T04:12:52.817Z,101396.17
2023-02-19T04:15:23.612Z,101401.02
2023-02-19T04:17:57.185Z,101398.07
2023-02-19T04:20:26.538Z,101394.09
2023-02-19T04:22:54.957Z,101394.80
2023-02-19T04:25:23.885Z,101400.05
2023-02-19T04:27:52.498Z,101406.54
2023-02-19T04:30:21.274Z,101408.51
2023-02-19T04:32:50.041Z,101415.48
2023-02-19T04:35:20.163Z,101413.42
2023-02-19T04:37:48.655Z,101415.88
2023-02-19T04:40:22.830Z,101409.42
2023-02-19T04:42:54.729Z,101399.47
2023-02-19T04:45:22.942Z,101399.23
2023-02-19T04:47:52.745Z,101393.63
2023-02-19T04:50:21.875Z,101391.51
2023-02-19T04:52:50.982Z,101389.58
2023-02-19T05:02:53.739Z,101482.44
2023-02-19T05:05:22.188Z,101498.38
2023-02-19T05:07:52.608Z,101462.13
2023-02-19T05:10:22.008Z,101446.52
2023-02-19T05:12:50.258Z,101441.34
2023-02-19T05:15:18.486Z,101434.64
2023-02-19T05:17:47.252Z,101435.92
2023-02-19T05:20:15.680Z,101431.14
2023-02-19T05:22:44.665Z,101430.16
2023-02-19T05:32:54.366Z,101518.36
2023-02-19T05:35:22.711Z,101541.52
2023-02-19T05:37:51.075Z,101518.32
2023-02-19T05:40:19.583Z,101506.39
2023-02-19T05:43:07.964Z,101506.65
2023-02-19T05:45:37.823Z,101503.59
2023-02-19T05:48:06.232Z,101502.27
2023-02-19T05:50:38.190Z,101500.94
2023-02-19T05:53:13.629Z,101504.33
2023-02-19T05:55:41.929Z,101496.40
2023-02-19T05:58:10.188Z,101499.05
2023-02-19T06:00:38.437Z,101497.72
2023-02-19T06:03:07.433Z,101497.94
2023-02-19T06:05:37.146Z,101498.15
2023-02-19T06:08:11.242Z,101506.02
2023-02-19T06:10:41.555Z,101513.20
2023-02-19T06:13:12.034Z,101521.44
2023-02-19T06:15:42.681Z,101533.52
2023-02-19T06:18:11.221Z,101542.45
2023-02-19T06:20:40.748Z,101553.48
2023-02-19T06:23:09.230Z,101560.55
2023-02-19T06:25:38.169Z,101564.95
2023-02-19T06:28:10.794Z,101568.70
2023-02-19T06:30:39.684Z,101581.50
2023-02-19T06:33:08.543Z,101593.09
2023-02-19T06:35:39.206Z,101600.83
2023-02-19T06:38:07.497Z,101611.69
2023-02-19T06:40:35.766Z,101615.41
2023-02-19T06:43:04.576Z,101621.02
2023-02-19T06:45:32.835Z,101634.14
2023-02-19T06:48:01.454Z,101634.86
2023-02-19T06:50:30.371Z,101631.04
2023-02-19T06:52:58.884Z,101625.09
2023-02-19T06:55:30.413Z,101614.94
2023-02-19T06:58:26.365Z,101600.97
2023-02-19T07:00:55.074Z,101592.23
2023-02-19T07:03:26.486Z,101587.70
2023-02-19T07:05:54.901Z,101593.60
2023-02-19T07:08:28.569Z,101602.19
2023-02-19T07:11:02.632Z,101612.68
2023-02-19T07:13:30.941Z,101613.59
2023-02-19T07:16:00.524Z,101616.41
2023-02-19T07:18:34.246Z,101619.58
2023-02-19T07:21:09.606Z,101624.84
2023-02-19T07:23:40.857Z,101624.50
2023-02-19T07:26:10.440Z,101617.71
2023-02-19T07:28:43.965Z,101624.02
2023-02-19T07:31:13.408Z,101639.04
2023-02-19T07:33:46.292Z,101644.66
2023-02-19T07:36:18.899Z,101643.81
2023-02-19T07:38:50.200Z,101654.31
2023-02-19T07:41:24.325Z,101662.19
2023-02-19T07:43:54.042Z,101677.77
2023-02-19T07:46:22.749Z,101700.34
2023-02-19T07:48:51.574Z,101717.84
2023-02-19T07:51:20.369Z,101731.14
2023-02-19T07:53:50.747Z,101757.90
2023-02-19T07:56:44.279Z,101780.27
2023-02-19T07:59:16.112Z,101799.69
2023-02-19T08:02:03.048Z,101807.56
2023-02-19T08:04:31.702Z,101825.92
2023-02-19T08:07:00.344Z,101831.87
2023-02-19T08:09:28.902Z,101830.13
2023-02-19T08:12:19.990Z,101829.59
2023-02-19T08:14:49.520Z,101831.50
2023-02-19T08:17:18.206Z,101838.33
2023-02-19T08:19:46.454Z,101839.36
2023-02-19T08:22:16.637Z,101836.38
2023-02-19T08:24:48.659Z,101833.05
2023-02-19T08:27:17.188Z,101837.25
2023-02-19T08:29:46.485Z,101829.00
2023-02-19T08:32:18.294Z,101816.05
2023-02-19T08:34:46.569Z,101799.61
2023-02-19T08:37:21.154Z,101790.14
2023-02-19T08:39:49.451Z,101774.23
2023-02-19T08:42:17.971Z,101759.34
2023-02-19T08:44:46.231Z,101752.50
2023-02-19T08:47:16.127Z,101750.19
2023-02-19T08:49:45.758Z,101736.20
2023-02-19T08:52:14.160Z,101722.52
2023-02-19T08:54:43.416Z,101707.44
2023-02-19T08:57:11.801Z,101701.61
2023-02-19T08:59:40.535Z,101696.84
2023-02-19T09:02:12.069Z,101698.36
2023-02-19T09:04:40.496Z,101696.01
2023-02-19T09:07:11.336Z,101689.10
2023-02-19T09:09:41.122Z,101680.85
2023-02-19T09:12:10.629Z,101672.05
2023-02-19T09:14:41.491Z,101658.02
2023-02-19T09:17:10.086Z,101637.70
2023-02-19T09:19:38.353Z,101620.55
2023-02-19T09:22:06.844Z,101605.63
2023-02-19T09:24:35.817Z,101597.67
2023-02-19T09:27:04.205Z,101584.11
2023-02-19T09:29:34.667Z,101573.37
2023-02-19T09:32:03.129Z,101576.83
2023-02-19T09:34:31.483Z,101566.55
2023-02-19T09:37:28.512Z,101548.36
2023-02-19T09:39:57.359Z,101524.35
2023-02-19T09:42:32.760Z,101502.83
2023-02-19T09:45:01.631Z,101479.45
2023-02-19T09:47:36.700Z,101448.54
2023-02-19T09:50:09.620Z,101418.41
2023-02-19T09:52:48.554Z,101399.16
2023-02-19T09:55:20.419Z,101385.02
2023-02-19T09:57:48.964Z,101378.11
2023-02-19T10:01:08.059Z,101378.34
2023-02-19T10:03:41.617Z,101386.77
2023-02-19T10:06:21.082Z,101384.48
2023-02-19T10:08:51.557Z,101369.30
2023-02-19T10:11:20.616Z,101358.81
2023-02-19T10:13:54.034Z,101361.58
2023-02-19T10:16:26.474Z,101362.73
2023-02-19T10:18:56.836Z,101358.72
2023-02-19T10:21:31.759Z,101349.85
2023-02-19T10:24:01.562Z,101347.92
2023-02-19T10:26:35.451Z,101339.27
2023-02-19T10:29:06.423Z,101340.98
2023-02-19T10:31:39.184Z,101329.84
2023-02-19T10:34:22.528Z,101318.66
2023-02-19T10:36:51.244Z,101306.36
2023-02-19T10:39:21.914Z,101294.45
2023-02-19T10:41:56.081Z,101293.11
2023-02-19T10:44:29.586Z,101297.41
2023-02-19T10:46:59.553Z,101304.54
2023-02-19T10:49:39.269Z,101280.45
2023-02-19T10:52:19.696Z,101244.45
2023-02-19T10:54:53.201Z,101205.78
2023-02-19T10:57:32.886Z,101162.34
2023-02-19T11:00:02.073Z,101122.04
2023-02-19T11:02:31.395Z,101106.88
2023-02-19T11:05:18.399Z,101096.30
2023-02-19T11:07:53.678Z,101094.27
2023-02-19T11:10:27.847Z,101070.70
2023-02-19T11:13:03.048Z,101046.33
2023-02-19T11:15:33.928Z,101031.64
2023-02-19T11:18:15.453Z,101003.77
2023-02-19T11:20:51.142Z,100987.91
2023-02-19T11:23:22.567Z,100981.58
2023-02-19T11:25:50.857Z,100973.40
2023-02-19T11:28:38.018Z,100956.33
2023-02-19T11:31:20.393Z,100928.15
2023-02-19T11:33:56.475Z,100917.64
2023-02-19T11:36:35.053Z,100910.12
2023-02-19T11:39:15.851Z,100897.82
2023-02-19T11:42:34.038Z,100868.81
2023-02-19T11:45:43.671Z,100836.61
2023-02-19T11:48:33.086Z,100811.11
2023-02-19T11:51:10.296Z,100793.19
2023-02-19T11:53:46.093Z,100783.58
2023-02-19T11:56:25.073Z,100789.71
2023-02-19T11:59:05.393Z,100780.89
2023-02-19T12:02:02.563Z,100778.13
2023-02-19T12:05:05.741Z,100782.45
2023-02-19T12:07:48.208Z,100783.27
2023-02-19T12:10:58.269Z,100785.61
2023-02-19T12:14:04.128Z,100775.75
2023-02-19T12:16:54.027Z,100758.61
2023-02-19T12:20:07.807Z,100735.18
2023-02-19T12:23:29.442Z,100707.08
2023-02-19T12:25:59.215Z,100690.73
2023-02-19T12:28:45.000Z,100678.00
2023-02-19T12:31:28.479Z,100666.33
2023-02-19T12:34:06.597Z,100657.61
2023-02-19T12:36:42.210Z,100654.71
2023-02-19T12:39:39.338Z,100650.02
2023-02-19T12:42:11.393Z,100642.96
2023-02-19T12:44:46.964Z,100643.11
2023-02-19T12:47:20.646Z,100631.77
2023-02-19T12:50:17.199Z,100625.44
2023-02-19T12:53:12.757Z,100622.56
2023-02-19T12:55:43.472Z,100617.66
2023-02-19T12:58:29.965Z,100620.96
2023-02-19T13:00:59.923Z,100622.67
2023-02-19T13:03:39.766Z,100616.75
2023-02-19T13:06:12.740Z,100610.66
2023-02-19T13:09:05.473Z,100601.86
2023-02-19T13:11:41.773Z,100593.21
2023-02-19T13:14:49.324Z,100588.45
2023-02-19T13:17:53.026Z,100573.02
2023-02-19T13:24:44.142Z,100550.98
2023-02-19T13:27:21.728Z,100540.38
2023-02-19T13:30:08.473Z,100540.77
2023-02-19T13:33:58.970Z,100551.59
2023-02-19T13:36:27.498Z,100533.06
2023-02-19T13:38:57.642Z,100523.30
2023-02-19T13:41:32.508Z,100519.46
2023-02-19T13:44:05.835Z,100515.27
2023-02-19T13:46:44.815Z,100515.63
2023-02-19T13:49:28.780Z,100512.48
2023-02-19T13:52:04.566Z,100507.14
2023-02-19T13:54:33.856Z,100497.79
2023-02-19T13:57:30.411Z,100485.91
2023-02-19T13:59:58.885Z,100479.73
2023-02-19T14:02:32.677Z,100474.92
2023-02-19T14:05:04.867Z,100475.00
2023-02-19T14:07:35.150Z,100467.30
2023-02-19T14:10:04.213Z,100469.57
2023-02-19T14:12:34.549Z,100475.87
2023-02-19T14:15:25.559Z,100472.05
2023-02-19T14:17:55.461Z,100465.45
2023-02-19T14:20:39.957Z,100462.80
2023-02-19T14:23:16.810Z,100462.36
2023-02-19T14:25:49.572Z,100460.52
2023-02-19T14:28:56.376Z,100462.13
2023-02-19T14:31:34.579Z,100466.91
2023-02-19T14:34:21.775Z,100463.35
2023-02-19T14:36:55.666Z,100456.09
2023-02-19T14:39:26.194Z,100451.45
2023-02-19T14:42:03.459Z,100457.05
2023-02-19T14:44:42.435Z,100457.98
2023-02-19T14:47:14.905Z,100453.52
2023-02-19T14:52:41.288Z,100448.26
2023-02-19T14:55:20.862Z,100447.20
2023-02-19T14:57:50.657Z,100440.95
2023-02-19T15:00:47.133Z,100436.04
2023-02-19T15:03:42.354Z,100439.67
2023-02-19T15:06:17.807Z,100436.52
2023-02-19T15:08:50.371Z,100434.88
2023-02-19T15:11:26.621Z,100436.96
2023-02-19T15:13:58.952Z,100439.73
2023-02-19T15:16:27.501Z,100442.04
2023-02-19T15:18:55.992Z,100441.89
2023-02-19T15:21:31.835Z,100445.37
2023-02-19T15:24:02.717Z,100443.98
2023-02-19T15:26:42.510Z,100438.21
2023-02-19T15:29:12.586Z,100440.30
2023-02-19T15:32:00.957Z,100442.41
2023-02-19T15:34:32.262Z,100440.20
2023-02-19T15:37:03.847Z,100433.83
2023-02-19T15:39:46.655Z,100434.22
2023-02-19T15:42:18.124Z,100441.94
2023-02-19T15:44:59.742Z,100440.07
2023-02-19T15:48:19.798Z,100443.39
2023-02-19T15:50:50.339Z,100447.61
2023-02-19T15:53:30.068Z,100450.24
2023-02-19T15:56:28.441Z,100450.23
2023-02-19T15:59:55.818Z,100449.89
2023-02-19T16:02:25.795Z,100446.27
2023-02-19T16:04:55.719Z,100445.28
2023-02-19T16:07:25.920Z,100449.45
2023-02-19T16:10:24.257Z,100450.68
2023-02-19T16:12:59.743Z,100449.13
2023-02-19T16:15:33.097Z,100447.21
2023-02-19T16:18:02.338Z,100446.70
2023-02-19T16:20:34.904Z,100448.95
2023-02-19T16:23:14.460Z,100444.07
2023-02-19T16:25:46.376Z,100441.68
2023-02-19T16:28:22.277Z,100440.14
2023-02-19T16:31:01.731Z,100440.67
2023-02-19T16:33:39.012Z,100439.30
2023-02-19T16:36:31.675Z,100438.59
2023-02-19T16:39:13.272Z,100438.96
2023-02-19T16:41:47.841Z,100437.77
2023-02-19T16:44:27.673Z,100438.48
2023-02-19T16:47:24.098Z,100436.94
2023-02-19T16:49:55.965Z,100441.33
2023-02-19T16:52:24.266Z,100443.64
2023-02-19T16:54:56.584Z,100444.01
2023-02-19T16:57:26.658Z,100442.64
2023-02-19T16:59:54.883Z,100440.44
2023-02-19T17:02:24.514Z,100446.39
2023-02-19T17:04:55.282Z,100443.64
2023-02-19T17:07:29.077Z,100443.88
2023-02-19T17:09:57.657Z,100447.23
2023-02-19T17:12:52.834Z,100449.34
2023-02-19T17:15:22.146Z,100451.27
2023-02-19T17:17:54.159Z,100448.34
2023-02-19T17:20:25.753Z,100450.27
2023-02-19T17:22:56.281Z,100451.48
2023-02-19T17:25:24.697Z,100452.37
2023-02-19T17:27:53.888Z,100449.94
2023-02-19T17:30:32.718Z,100446.81
2023-02-19T17:33:01.136Z,100450.30
2023-02-19T17:35:35.179Z,100450.84
2023-02-19T17:38:09.677Z,100442.15
2023-02-19T17:40:38.535Z,100440.77
2023-02-19T17:43:07.466Z,100442.16
2023-02-19T17:45:38.045Z,100440.62
2023-02-19T17:48:07.029Z,100440.97
2023-02-19T17:50:35.365Z,100443.23
2023-02-19T17:53:03.862Z,100442.37
2023-02-19T17:55:33.865Z,100440.82
2023-02-19T17:58:02.513Z,100440.12
2023-02-19T18:00:32.527Z,100440.50
2023-02-19T18:03:00.884Z,100450.08
2023-02-19T18:05:30.416Z,100452.00
2023-02-19T18:07:59.328Z,100452.20
2023-02-19T18:10:28.220Z,100452.73
2023-02-19T18:12:56.670Z,100452.05
2023-02-19T18:15:31.651Z,100452.06
2023-02-19T18:18:05.326Z,100451.39
2023-02-19T18:20:33.988Z,100447.96
2023-02-19T18:23:04.134Z,100448.88
2023-02-19T18:25:32.555Z,100447.36
2023-02-19T18:28:01.154Z,100450.19
2023-02-19T18:30:30.519Z,100453.02
2023-02-19T18:33:02.529Z,100452.54
2023-02-19T18:35:30.928Z,100456.05
2023-02-19T18:38:02.399Z,100451.75
2023-02-19T18:40:30.977Z,100457.84
2023-02-19T18:43:01.342Z,100457.69
2023-02-19T18:45:34.273Z,100456.33
2023-02-19T18:48:05.050Z,100457.56
2023-02-19T18:50:35.288Z,100461.55
2023-02-19T18:53:04.422Z,100464.00
2023-02-19T18:55:34.116Z,100461.58
2023-02-19T18:58:02.872Z,100456.02
2023-02-19T19:00:33.083Z,100458.30
2023-02-19T19:03:01.693Z,100462.13
2023-02-19T19:05:30.243Z,100461.95
2023-02-19T19:07:59.744Z,100463.17
2023-02-19T19:10:30.385Z,100463.19
2023-02-19T19:13:02.639Z,100459.20
2023-02-19T19:15:31.613Z,100461.11
2023-02-19T19:18:00.244Z,100460.25
2023-02-19T19:20:28.965Z,100462.15
2023-02-19T19:22:57.869Z,100464.73
2023-02-19T19:25:26.492Z,100470.64
2023-02-19T19:27:55.235Z,100471.84
2023-02-19T19:30:23.814Z,100472.53
2023-02-19T19:32:53.925Z,100470.97
2023-02-19T19:35:22.675Z,100470.62
2023-02-19T19:37:51.427Z,100472.02
2023-02-19T19:40:19.828Z,100472.70
2023-02-19T19:42:50.617Z,100470.63
2023-02-19T19:45:19.031Z,100474.62
2023-02-19T19:47:49.102Z,100474.63
2023-02-19T19:50:24.808Z,100472.54
2023-02-19T19:52:57.770Z,100468.40
2023-02-19T19:55:26.041Z,100462.67
2023-02-19T19:57:54.907Z,100463.56
2023-02-19T20:00:24.702Z,100451.77
2023-02-19T20:02:53.221Z,100448.30
2023-02-19T20:05:22.138Z,100446.73
2023-02-19T20:07:54.271Z,100447.77
2023-02-19T20:10:48.175Z,100445.52
2023-02-19T20:13:18.028Z,100447.95
2023-02-19T20:15:49.150Z,100446.23
2023-02-19T20:18:17.665Z,100445.19
2023-02-19T20:20:46.740Z,100443.30
2023-02-19T20:23:15.594Z,100446.44
2023-02-19T20:25:43.837Z,100453.73
2023-02-19T20:28:18.044Z,100454.95
2023-02-19T20:30:46.600Z,100454.44
2023-02-19T20:33:14.906Z,100452.36
2023-02-19T20:35:43.225Z,100451.16
2023-02-19T20:38:15.470Z,100445.25
2023-02-19T20:40:43.807Z,100447.69
2023-02-19T20:43:12.210Z,100450.98
2023-02-19T20:45:41.354Z,100452.55
2023-02-19T20:48:09.756Z,100454.27
2023-02-19T20:50:38.202Z,100456.17
2023-02-19T20:53:06.912Z,100456.18
2023-02-19T20:55:38.073Z,100453.40
2023-02-19T20:58:06.693Z,100452.20
2023-02-19T21:00:34.968Z,100453.58
2023-02-19T21:03:04.185Z,100451.67
2023-02-19T21:05:32.743Z,100450.10
2023-02-19T21:08:52.566Z,100449.41
2023-02-19T21:11:20.825Z,100454.09
2023-02-19T21:13:49.230Z,100451.14
2023-02-19T21:16:17.707Z,100452.72
2023-02-19T21:18:45.945Z,100451.66
2023-02-19T21:21:18.576Z,100450.27
2023-02-19T21:23:47.702Z,100450.80
2023-02-19T21:26:16.245Z,100451.30
2023-02-19T21:28:44.564Z,100454.09
2023-02-19T21:31:13.001Z,100457.88
2023-02-19T21:33:41.667Z,100458.58
2023-02-19T21:36:10.731Z,100455.11
2023-02-19T21:38:40.603Z,100461.35
2023-02-19T21:41:08.914Z,100468.64
2023-02-19T21:43:37.494Z,100471.77
2023-02-19T21:46:05.939Z,100479.90
2023-02-19T21:48:35.074Z,100474.36
2023-02-19T21:51:04.176Z,100472.27
2023-02-19T21:53:33.042Z,100472.77
2023-02-19T21:56:01.335Z,100469.98
2023-02-19T21:58:29.783Z,100474.33
2023-02-19T22:00:58.466Z,100476.08
2023-02-19T22:03:32.029Z,100471.03
2023-02-19T22:06:01.888Z,100471.20
2023-02-19T22:08:33.894Z,100473.27
2023-02-19T22:11:02.089Z,100476.23
2023-02-19T22:13:30.479Z,100479.86
2023-02-19T22:15:59.302Z,100479.52
2023-02-19T22:18:27.568Z,100488.89
2023-02-19T22:20:56.628Z,100491.83
2023-02-19T22:23:24.861Z,100492.88
2023-02-19T22:25:53.133Z,100496.70
2023-02-19T22:28:21.470Z,100497.55
2023-02-19T22:30:49.758Z,100504.50
2023-02-19T22:33:19.176Z,100498.59
2023-02-19T22:35:47.449Z,100499.63
2023-02-19T22:38:15.765Z,100504.13
2023-02-19T22:40:44.469Z,100503.08
2023-02-19T22:43:17.442Z,100503.08
2023-02-19T22:45:46.001Z,100506.56
2023-02-19T22:48:21.889Z,100507.94
2023-02-19T22:51:02.643Z,100509.86
2023-02-19T22:53:31.879Z,100504.12
2023-02-19T22:56:00.158Z,100507.23
2023-02-19T22:58:28.417Z,100505.34
2023-02-19T23:00:56.864Z,100503.09
2023-02-19T23:03:28.485Z,100505.16
2023-02-19T23:05:56.919Z,100507.75
2023-02-19T23:08:25.069Z,100506.19
2023-02-19T23:10:53.342Z,100507.75
2023-02-19T23:13:23.317Z,100508.44
2023-02-19T23:15:51.918Z,100510.35
2023-02-19T23:18:20.108Z,100511.05
2023-02-19T23:20:48.323Z,100512.97
2023-02-19T23:23:17.089Z,100515.22
2023-02-19T23:25:45.372Z,100516.44
2023-02-19T23:28:14.119Z,100514.36
2023-02-19T23:30:42.400Z,100515.40
2023-02-19T23:33:11.349Z,100521.14
2023-02-19T23:35:39.556Z,100517.14
2023-02-19T23:38:08.310Z,100515.23
2023-02-19T23:40:36.568Z,100516.63
2023-02-19T23:43:05.378Z,100524.61
2023-02-19T23:45:34.394Z,100528.08
2023-02-19T23:48:07.221Z,100529.98
2023-02-19T23:50:35.866Z,100532.41
2023-02-19T23:53:09.010Z,100528.42
2023-02-19T23:55:37.274Z,100529.64
2023-02-19T23:58:06.519Z,100524.44
